createdAt,value
2022-09-01T00:00:01.833Z,86
2022-09-01T00:05:00.187Z,86
2022-09-01T00:10:00.265Z,86
2022-09-01T00:15:00.153Z,87
2022-09-01T00:20:00.192Z,87
2022-09-01T00:25:00.213Z,88
2022-09-01T00:30:04.758Z,88
2022-09-01T00:35:00.166Z,88
2022-09-01T00:40:00.163Z,88
2022-09-01T00:45:00.192Z,88
2022-09-01T00:50:00.196Z,88
2022-09-01T00:55:00.202Z,88
2022-09-01T01:00:00.213Z,88
2022-09-01T01:05:00.183Z,89
2022-09-01T01:10:00.205Z,89
2022-09-01T01:15:00.178Z,89
2022-09-01T01:20:00.177Z,89
2022-09-01T01:25:00.151Z,89
2022-09-01T01:30:00.176Z,89
2022-09-01T01:35:00.167Z,90
2022-09-01T01:40:00.177Z,90
2022-09-01T01:45:00.190Z,90
2022-09-01T01:50:00.182Z,90
2022-09-01T01:55:04.996Z,90
2022-09-01T02:00:00.202Z,90
2022-09-01T02:05:00.165Z,90
2022-09-01T02:45:00.170Z,91
2022-09-01T02:50:00.177Z,91
2022-09-01T02:55:00.175Z,91
2022-09-01T03:00:00.215Z,91
2022-09-01T03:05:00.329Z,91
2022-09-01T03:10:00.169Z,91
2022-09-01T03:15:00.181Z,91
2022-09-01T03:20:00.193Z,91
2022-09-01T03:25:00.195Z,91
2022-09-01T03:30:00.177Z,91
2022-09-01T03:35:00.173Z,90
2022-09-01T03:40:00.201Z,90
2022-09-01T03:45:00.179Z,91
2022-09-01T03:50:00.183Z,91
2022-09-01T03:55:00.181Z,91
2022-09-01T04:00:00.213Z,91
2022-09-01T04:05:00.167Z,91
2022-09-01T04:10:00.173Z,91
2022-09-01T04:15:00.179Z,91
2022-09-01T04:20:00.174Z,92
2022-09-01T04:25:00.183Z,92
2022-09-01T04:30:00.161Z,92
2022-09-01T04:35:00.177Z,92
2022-09-01T04:40:00.180Z,91
2022-09-01T04:45:01.922Z,91
2022-09-01T04:50:00.187Z,91
2022-09-01T04:55:00.180Z,91
2022-09-01T05:00:00.241Z,91
2022-09-01T05:05:00.192Z,92
2022-09-01T05:10:01.361Z,91
2022-09-01T05:15:00.292Z,91
2022-09-01T05:20:00.224Z,91
2022-09-01T05:25:00.188Z,90
2022-09-01T05:30:00.235Z,89
2022-09-01T05:35:00.192Z,88
2022-09-01T05:40:00.201Z,88
2022-09-01T05:45:00.218Z,87
2022-09-01T05:50:00.207Z,87
2022-09-01T05:55:00.262Z,86
2022-09-01T06:00:00.244Z,84
2022-09-01T06:05:00.196Z,84
2022-09-01T06:10:00.221Z,84
2022-09-01T06:15:00.238Z,83
2022-09-01T06:20:00.207Z,82
2022-09-01T06:25:02.846Z,81
2022-09-01T06:30:00.227Z,80
2022-09-01T06:35:00.205Z,77
2022-09-01T06:40:00.209Z,78
2022-09-01T06:45:00.205Z,78
2022-09-01T06:50:00.366Z,78
2022-09-01T06:55:03.413Z,77
2022-09-01T07:00:00.231Z,76
2022-09-01T07:05:00.390Z,75
2022-09-01T07:20:23.194Z,68
2022-09-01T07:25:12.881Z,64
2022-09-01T07:30:00.194Z,66
2022-09-01T07:35:00.236Z,66
2022-09-01T07:42:30.104Z,75
2022-09-01T07:45:25.526Z,60
2022-09-01T07:50:37.519Z,57
2022-09-01T07:55:00.192Z,55
2022-09-01T08:00:00.244Z,53
2022-09-01T08:05:00.294Z,52
2022-09-01T08:10:01.270Z,51
2022-09-01T08:15:41.574Z,52
2022-09-01T08:20:00.266Z,49
2022-09-01T08:25:00.196Z,51
2022-09-01T08:30:00.311Z,49
2022-09-01T08:35:00.197Z,48
2022-09-01T08:40:00.363Z,47
2022-09-01T08:45:00.195Z,46
2022-09-01T08:50:00.208Z,48
2022-09-01T08:55:00.202Z,45
2022-09-01T09:00:00.236Z,44
2022-09-01T09:05:00.178Z,43
2022-09-01T09:10:00.293Z,43
2022-09-01T09:15:00.181Z,43
2022-09-01T09:20:00.218Z,43
2022-09-01T09:25:00.231Z,40
2022-09-01T09:30:05.658Z,41
2022-09-01T09:35:00.190Z,42
2022-09-01T09:40:00.197Z,42
2022-09-01T09:45:00.225Z,40
2022-09-01T09:50:00.194Z,41
2022-09-01T09:55:00.221Z,42
2022-09-01T10:00:01.094Z,41
2022-09-01T10:05:00.248Z,39
2022-09-01T10:10:00.199Z,42
2022-09-01T10:15:04.246Z,37
2022-09-01T10:20:00.195Z,38
2022-09-01T10:25:00.177Z,39
2022-09-01T10:30:14.076Z,37
2022-09-01T10:35:00.210Z,37
2022-09-01T10:40:00.189Z,39
2022-09-01T10:45:00.200Z,37
2022-09-01T10:50:01.225Z,38
2022-09-01T10:55:00.210Z,38
2022-09-01T11:00:00.736Z,38
2022-09-01T11:05:00.589Z,40
2022-09-01T11:10:08.949Z,38
2022-09-01T11:15:00.235Z,40
2022-09-01T11:20:00.203Z,41
2022-09-01T11:25:12.188Z,40
2022-09-01T11:30:00.192Z,36
2022-09-01T11:35:00.280Z,38
2022-09-01T11:40:00.199Z,40
2022-09-01T11:45:00.196Z,36
2022-09-01T11:50:00.261Z,37
2022-09-01T11:55:00.206Z,35
2022-09-01T12:00:00.222Z,34
2022-09-01T12:05:00.198Z,34
2022-09-01T12:10:00.206Z,35
2022-09-01T12:15:06.164Z,35
2022-09-01T12:20:00.186Z,35
2022-09-01T12:25:00.184Z,35
2022-09-01T12:30:00.219Z,32
2022-09-01T12:35:00.198Z,32
2022-09-01T12:40:00.199Z,34
2022-09-01T12:45:00.215Z,34
2022-09-01T12:50:00.205Z,33
2022-09-01T12:55:00.221Z,33
2022-09-01T13:00:00.248Z,34
2022-09-01T13:05:00.200Z,32
2022-09-01T13:10:00.324Z,34
2022-09-01T13:15:00.276Z,32
2022-09-01T13:20:00.272Z,35
2022-09-01T13:25:00.551Z,34
2022-09-01T13:30:00.251Z,32
2022-09-01T13:35:00.700Z,31
2022-09-01T13:40:01.569Z,32
2022-09-01T13:45:00.217Z,31
2022-09-01T13:50:11.035Z,32
2022-09-01T13:55:00.180Z,32
2022-09-01T14:00:00.244Z,32
2022-09-01T14:05:00.171Z,32
2022-09-01T14:10:00.200Z,32
2022-09-01T14:15:17.785Z,33
2022-09-01T14:20:00.186Z,31
2022-09-01T14:25:00.168Z,33
2022-09-01T14:30:00.222Z,32
2022-09-01T14:35:00.167Z,33
2022-09-01T14:40:00.176Z,33
2022-09-01T14:45:00.194Z,32
2022-09-01T14:50:00.285Z,31
2022-09-01T14:55:00.186Z,31
2022-09-01T15:00:00.340Z,32
2022-09-01T15:05:00.268Z,31
2022-09-01T15:10:00.192Z,31
2022-09-01T15:15:00.300Z,32
2022-09-01T15:20:00.177Z,31
2022-09-01T15:25:00.187Z,33
2022-09-01T15:30:00.297Z,33
2022-09-01T15:35:00.415Z,31
2022-09-01T15:40:00.189Z,34
2022-09-01T15:45:00.208Z,31
2022-09-01T15:50:00.151Z,31
2022-09-01T15:55:00.185Z,32
2022-09-01T16:00:00.214Z,32
2022-09-01T16:05:00.175Z,33
2022-09-01T16:10:00.156Z,34
2022-09-01T16:15:00.188Z,34
2022-09-01T16:20:00.174Z,32
2022-09-01T16:25:00.185Z,34
2022-09-01T16:30:00.177Z,34
2022-09-01T16:35:00.209Z,35
2022-09-01T16:40:00.189Z,33
2022-09-01T16:45:00.189Z,35
2022-09-01T16:50:00.168Z,34
2022-09-01T16:55:00.203Z,35
2022-09-01T17:00:00.197Z,36
2022-09-01T17:05:00.184Z,36
2022-09-01T17:10:00.189Z,37
2022-09-01T17:15:00.188Z,37
2022-09-01T17:20:00.190Z,38
2022-09-01T17:25:00.270Z,38
2022-09-01T17:30:00.201Z,38
2022-09-01T17:35:00.173Z,38
2022-09-01T17:40:00.215Z,38
2022-09-01T17:45:00.187Z,40
2022-09-01T17:50:00.185Z,40
2022-09-01T17:55:00.287Z,41
2022-09-01T18:00:00.198Z,41
2022-09-01T18:05:00.407Z,41
2022-09-01T18:10:00.174Z,42
2022-09-01T18:15:00.187Z,42
2022-09-01T18:20:00.211Z,44
2022-09-01T18:25:00.219Z,43
2022-09-01T18:30:00.204Z,44
2022-09-01T18:35:00.201Z,45
2022-09-01T18:40:00.194Z,46
2022-09-01T18:50:00.233Z,47
2022-09-01T18:55:00.259Z,47
2022-09-01T19:00:00.255Z,47
2022-09-01T19:05:00.186Z,49
2022-09-01T19:10:00.184Z,48
2022-09-01T19:15:00.197Z,49
2022-09-01T19:20:00.192Z,48
2022-09-01T19:25:00.183Z,48
2022-09-01T19:30:00.202Z,50
2022-09-01T19:35:00.179Z,49
2022-09-01T19:40:00.211Z,49
2022-09-01T19:45:00.199Z,50
2022-09-01T19:50:00.167Z,50
2022-09-01T19:55:00.186Z,50
2022-09-01T20:00:00.259Z,51
2022-09-01T20:05:00.178Z,52
2022-09-01T20:10:00.177Z,51
2022-09-01T20:15:00.188Z,53
2022-09-01T20:20:00.191Z,54
2022-09-01T20:25:00.191Z,53
2022-09-01T20:30:00.196Z,54
2022-09-01T20:35:00.178Z,54
2022-09-01T20:40:00.191Z,54
2022-09-01T20:45:00.202Z,53
2022-09-01T20:50:00.238Z,53
2022-09-01T20:55:00.195Z,53
2022-09-01T21:00:00.259Z,52
2022-09-01T21:05:00.207Z,51
2022-09-01T21:10:00.193Z,52
2022-09-01T21:15:00.184Z,53
2022-09-01T21:20:00.189Z,53
2022-09-01T21:25:00.154Z,52
2022-09-01T21:30:00.171Z,54
2022-09-01T21:35:00.201Z,54
2022-09-01T21:40:00.191Z,55
2022-09-01T21:45:00.190Z,55
2022-09-01T21:50:00.173Z,56
2022-09-01T21:55:00.175Z,57
2022-09-01T22:00:00.261Z,57
2022-09-01T22:05:00.180Z,58
2022-09-01T22:10:00.172Z,59
2022-09-01T22:15:00.172Z,58
2022-09-01T22:20:00.172Z,59
2022-09-01T22:25:00.173Z,59
2022-09-01T22:30:00.172Z,59
2022-09-01T22:35:00.211Z,60
2022-09-01T22:40:00.172Z,60
2022-09-01T22:45:00.197Z,61
2022-09-01T22:50:00.181Z,61
2022-09-01T22:55:00.154Z,61
2022-09-01T23:00:00.196Z,62
2022-09-01T23:05:00.172Z,62
2022-09-01T23:10:00.178Z,63
2022-09-01T23:15:00.173Z,63
2022-09-01T23:20:00.180Z,63
2022-09-01T23:25:00.177Z,63
2022-09-01T23:30:00.192Z,63
2022-09-01T23:35:00.169Z,64
2022-09-01T23:40:00.190Z,64
2022-09-01T23:45:00.189Z,64
2022-09-01T23:50:00.183Z,65
2022-09-01T23:55:00.172Z,65
